createdAt,value
2023-04-30T00:02:02.942Z,68.67
2023-04-30T00:04:29.684Z,69.37
2023-04-30T00:06:56.703Z,69.19
2023-04-30T00:09:23.409Z,69.05
2023-04-30T00:11:50.492Z,69.32
2023-04-30T00:14:17.235Z,68.46
2023-04-30T00:16:43.990Z,68.91
2023-04-30T00:19:10.921Z,67.97
2023-04-30T00:21:37.708Z,68.61
2023-04-30T00:24:05.255Z,68.55
2023-04-30T00:26:31.959Z,68.43
2023-04-30T00:28:58.795Z,68.59
2023-04-30T00:31:25.608Z,67.72
2023-04-30T00:33:52.332Z,67.84
2023-04-30T00:36:19.400Z,68.03
2023-04-30T00:38:46.140Z,68.51
2023-04-30T00:41:13.697Z,69.14
2023-04-30T00:43:40.434Z,68.57
2023-04-30T00:46:07.206Z,69.16
2023-04-30T00:48:34.237Z,68.65
2023-04-30T00:51:03.241Z,68.90
2023-04-30T00:53:30.306Z,69.05
2023-04-30T00:55:57.710Z,68.36
2023-04-30T00:58:26.138Z,68.79
2023-04-30T01:00:53.363Z,68.51
2023-04-30T01:03:20.606Z,68.61
2023-04-30T01:05:47.384Z,68.12
2023-04-30T01:08:14.602Z,68.62
2023-04-30T01:10:46.443Z,68.37
2023-04-30T01:13:19.463Z,68.05
2023-04-30T01:15:52.142Z,69.19
2023-04-30T01:18:28.992Z,68.80
2023-04-30T01:21:00.153Z,69.05
2023-04-30T01:23:38.236Z,69.04
2023-04-30T01:26:15.804Z,68.95
2023-04-30T01:28:46.504Z,68.81
2023-04-30T01:31:19.167Z,68.46
2023-04-30T01:33:45.955Z,68.65
2023-04-30T01:36:34.072Z,68.58
2023-04-30T01:39:21.318Z,69.25
2023-04-30T01:42:11.356Z,68.94
2023-04-30T01:44:55.460Z,68.32
2023-04-30T01:47:28.458Z,68.56
2023-04-30T01:50:06.268Z,68.27
2023-04-30T01:52:42.272Z,68.33
2023-04-30T01:55:12.683Z,68.86
2023-04-30T01:57:40.591Z,68.77
2023-04-30T02:00:11.018Z,68.69
2023-04-30T02:02:40.361Z,69.16
2023-04-30T02:05:07.773Z,68.84
2023-04-30T02:07:42.639Z,68.57
2023-04-30T02:10:10.224Z,69.07
2023-04-30T02:12:37.056Z,69.03
2023-04-30T02:15:05.137Z,68.82
2023-04-30T02:17:32.593Z,69.27
2023-04-30T02:19:59.772Z,68.66
2023-04-30T02:22:26.857Z,68.81
2023-04-30T02:24:55.770Z,68.98
2023-04-30T02:27:23.695Z,69.37
2023-04-30T02:29:50.488Z,69.79
2023-04-30T02:32:17.887Z,69.06
2023-04-30T02:34:45.022Z,69.40
2023-04-30T02:37:11.890Z,68.75
2023-04-30T02:39:38.569Z,69.51
2023-04-30T02:42:06.940Z,69.16
2023-04-30T02:44:34.145Z,69.00
2023-04-30T02:47:02.580Z,68.82
2023-04-30T02:49:29.753Z,69.47
2023-04-30T02:51:56.460Z,69.76
2023-04-30T02:54:23.277Z,69.03
2023-04-30T02:56:50.029Z,69.23
2023-04-30T02:59:16.772Z,68.92
2023-04-30T03:01:43.543Z,68.88
2023-04-30T03:04:10.547Z,69.20
2023-04-30T03:06:37.271Z,68.48
2023-04-30T03:09:04.080Z,69.06
2023-04-30T03:11:30.922Z,69.01
2023-04-30T03:13:57.730Z,68.46
2023-04-30T03:16:24.457Z,69.31
2023-04-30T03:18:51.372Z,69.14
2023-04-30T03:21:18.269Z,69.30
2023-04-30T03:23:45.023Z,69.72
2023-04-30T03:26:12.485Z,69.76
2023-04-30T03:28:39.209Z,70.04
2023-04-30T03:31:05.990Z,70.37
2023-04-30T03:33:33.416Z,70.41
2023-04-30T03:36:00.472Z,69.72
2023-04-30T03:38:27.276Z,69.35
2023-04-30T03:40:54.045Z,69.72
2023-04-30T03:43:21.056Z,70.28
2023-04-30T03:45:47.993Z,70.07
2023-04-30T03:48:14.816Z,70.35
2023-04-30T03:50:41.572Z,70.44
2023-04-30T03:53:08.304Z,70.42
2023-04-30T03:55:35.762Z,70.04
2023-04-30T03:58:02.916Z,70.56
2023-04-30T04:00:29.642Z,70.13
2023-04-30T04:02:58.302Z,70.15
2023-04-30T04:05:25.199Z,70.45
2023-04-30T04:07:51.899Z,69.96
2023-04-30T04:10:18.878Z,70.83
2023-04-30T04:12:46.530Z,70.91
2023-04-30T04:15:13.750Z,71.17
2023-04-30T04:17:40.634Z,70.57
2023-04-30T04:20:08.488Z,70.35
2023-04-30T04:22:36.500Z,70.61
2023-04-30T04:25:03.277Z,70.89
2023-04-30T04:27:32.378Z,69.92
2023-04-30T04:29:59.067Z,70.06
2023-04-30T04:32:26.095Z,70.06
2023-04-30T04:34:54.443Z,70.56
2023-04-30T04:37:21.343Z,70.42
2023-04-30T04:39:48.086Z,70.57
2023-04-30T04:42:18.154Z,70.46
2023-04-30T04:44:44.934Z,70.45
2023-04-30T04:47:13.018Z,70.47
2023-04-30T04:49:40.178Z,70.60
2023-04-30T04:52:07.273Z,69.91
2023-04-30T04:54:34.667Z,69.86
2023-04-30T04:57:03.234Z,70.50
2023-04-30T04:59:30.128Z,69.97
2023-04-30T05:01:56.963Z,69.91
2023-04-30T05:04:23.677Z,70.41
2023-04-30T05:06:50.508Z,70.07
2023-04-30T05:09:17.718Z,69.64
2023-04-30T05:11:46.360Z,69.78
2023-04-30T05:14:13.071Z,69.73
2023-04-30T05:16:40.407Z,69.90
2023-04-30T05:19:09.895Z,69.46
2023-04-30T05:21:37.193Z,69.49
2023-04-30T05:24:04.489Z,69.47
2023-04-30T05:26:31.212Z,69.08
2023-04-30T05:28:58.115Z,68.98
2023-04-30T05:31:24.882Z,69.02
2023-04-30T05:33:52.205Z,69.66
2023-04-30T05:36:18.940Z,68.94
2023-04-30T05:38:45.666Z,69.25
2023-04-30T05:41:13.364Z,68.81
2023-04-30T05:43:40.076Z,69.20
2023-04-30T05:46:06.962Z,69.01
2023-04-30T05:48:33.779Z,68.15
2023-04-30T05:51:00.499Z,67.76
2023-04-30T05:53:28.436Z,67.49
2023-04-30T05:55:55.169Z,67.78
2023-04-30T05:58:21.902Z,67.33
2023-04-30T06:00:52.291Z,67.84
2023-04-30T06:03:19.312Z,67.80
2023-04-30T06:05:47.440Z,67.33
2023-04-30T06:08:14.293Z,68.21
2023-04-30T06:10:41.029Z,66.80
2023-04-30T06:13:07.754Z,67.72
2023-04-30T06:15:34.510Z,68.16
2023-04-30T06:18:01.392Z,66.68
2023-04-30T06:20:28.309Z,67.24
2023-04-30T06:22:55.411Z,68.03
2023-04-30T06:25:22.381Z,65.85
2023-04-30T06:27:49.137Z,67.17
2023-04-30T06:30:16.104Z,65.91
2023-04-30T06:32:42.833Z,66.45
2023-04-30T06:35:09.810Z,66.26
2023-04-30T06:37:38.272Z,66.05
2023-04-30T06:40:06.688Z,65.89
2023-04-30T06:42:36.822Z,66.33
2023-04-30T06:45:04.292Z,66.40
2023-04-30T06:47:38.554Z,66.76
2023-04-30T06:50:05.899Z,66.51
2023-04-30T06:52:32.630Z,66.29
2023-04-30T06:54:59.299Z,67.15
2023-04-30T06:57:26.020Z,64.27
2023-04-30T06:59:53.138Z,64.95
2023-04-30T07:02:22.025Z,65.62
2023-04-30T07:04:49.598Z,64.61
2023-04-30T07:07:16.401Z,64.52
2023-04-30T07:09:43.107Z,65.01
2023-04-30T07:12:11.313Z,67.02
2023-04-30T07:14:38.044Z,66.30
2023-04-30T07:17:04.859Z,63.82
2023-04-30T07:19:32.757Z,64.20
2023-04-30T07:21:59.581Z,64.26
2023-04-30T07:24:26.368Z,64.13
2023-04-30T07:26:53.129Z,63.79
2023-04-30T07:29:20.104Z,63.31
2023-04-30T07:31:46.992Z,63.96
2023-04-30T07:34:13.742Z,64.52
2023-04-30T07:36:40.608Z,63.42
2023-04-30T07:39:08.211Z,62.92
2023-04-30T07:41:35.012Z,64.65
2023-04-30T07:44:01.740Z,64.29
2023-04-30T07:46:28.546Z,63.42
2023-04-30T07:48:55.354Z,64.54
2023-04-30T07:51:22.633Z,61.38
2023-04-30T07:53:49.333Z,62.57
2023-04-30T07:56:16.195Z,61.91
2023-04-30T07:58:43.258Z,62.58
2023-04-30T08:01:10.000Z,61.58
2023-04-30T08:03:36.891Z,60.78
2023-04-30T08:06:05.262Z,58.98
2023-04-30T08:08:31.978Z,59.50
2023-04-30T08:10:58.740Z,59.55
2023-04-30T08:13:25.501Z,60.27
2023-04-30T08:15:52.206Z,59.68
2023-04-30T08:18:18.947Z,59.20
2023-04-30T08:20:45.764Z,56.14
2023-04-30T08:23:12.491Z,58.17
2023-04-30T08:25:39.195Z,55.63
2023-04-30T08:28:07.171Z,55.39
2023-04-30T08:30:34.000Z,56.34
2023-04-30T08:33:00.741Z,54.72
2023-04-30T08:35:29.829Z,56.36
2023-04-30T08:37:56.534Z,53.83
2023-04-30T08:40:33.724Z,54.22
2023-04-30T08:43:11.790Z,53.27
2023-04-30T08:45:38.532Z,52.78
2023-04-30T08:48:06.019Z,51.35
2023-04-30T08:50:32.799Z,53.48
2023-04-30T08:52:59.644Z,52.59
2023-04-30T08:55:30.156Z,53.72
2023-04-30T08:57:56.864Z,52.05
2023-04-30T09:00:23.629Z,50.36
2023-04-30T09:02:50.831Z,50.91
2023-04-30T09:05:17.582Z,49.62
2023-04-30T09:08:01.062Z,50.53
2023-04-30T09:10:32.824Z,50.72
2023-04-30T09:13:02.125Z,50.98
2023-04-30T09:15:29.933Z,50.51
2023-04-30T09:18:21.912Z,50.24
2023-04-30T09:21:01.333Z,50.53
2023-04-30T09:23:28.571Z,49.83
2023-04-30T09:25:55.634Z,50.73
2023-04-30T09:28:28.859Z,51.15
2023-04-30T09:30:59.409Z,46.98
2023-04-30T09:33:26.538Z,50.61
2023-04-30T09:35:53.283Z,50.47
2023-04-30T09:38:27.093Z,49.49
2023-04-30T09:40:53.833Z,46.45
2023-04-30T09:43:20.572Z,48.02
2023-04-30T09:45:49.914Z,45.96
2023-04-30T09:48:18.041Z,47.43
2023-04-30T09:50:48.012Z,48.61
2023-04-30T09:53:18.103Z,50.24
2023-04-30T09:55:45.436Z,47.81
2023-04-30T09:58:12.704Z,49.08
2023-04-30T10:00:40.127Z,49.59
2023-04-30T10:03:11.383Z,44.26
2023-04-30T10:05:41.386Z,49.29
2023-04-30T10:08:14.279Z,47.59
2023-04-30T10:10:41.755Z,45.56
2023-04-30T10:13:11.277Z,47.72
2023-04-30T10:15:46.274Z,49.55
2023-04-30T10:18:26.767Z,48.59
2023-04-30T10:20:54.477Z,47.46
2023-04-30T10:23:22.384Z,48.10
2023-04-30T10:25:49.510Z,43.84
2023-04-30T10:28:16.385Z,45.47
2023-04-30T10:30:43.864Z,47.77
2023-04-30T10:33:23.609Z,46.05
2023-04-30T10:35:57.791Z,47.34
2023-04-30T10:38:29.940Z,45.85
2023-04-30T10:41:04.043Z,45.81
2023-04-30T10:43:31.407Z,46.40
2023-04-30T10:45:58.953Z,48.10
2023-04-30T10:48:26.983Z,46.91
2023-04-30T10:50:56.712Z,47.52
2023-04-30T10:53:26.467Z,45.69
2023-04-30T10:56:09.334Z,46.19
2023-04-30T10:58:38.936Z,47.22
2023-04-30T11:01:12.247Z,47.03
2023-04-30T11:03:42.550Z,45.59
2023-04-30T11:06:13.085Z,45.93
2023-04-30T11:08:43.023Z,46.67
2023-04-30T11:11:11.008Z,45.92
2023-04-30T11:13:48.697Z,45.18
2023-04-30T11:16:20.359Z,45.58
2023-04-30T11:18:47.475Z,46.05
2023-04-30T11:21:14.355Z,45.32
2023-04-30T11:23:43.396Z,43.16
2023-04-30T11:26:10.545Z,45.88
2023-04-30T11:28:38.340Z,45.81
2023-04-30T11:31:05.732Z,45.98
2023-04-30T11:33:33.735Z,46.12
2023-04-30T11:36:01.635Z,46.32
2023-04-30T11:38:35.164Z,44.37
2023-04-30T11:41:02.733Z,43.41
2023-04-30T11:43:31.522Z,45.04
2023-04-30T11:46:12.201Z,43.78
2023-04-30T11:48:40.778Z,42.75
2023-04-30T11:51:24.736Z,45.09
2023-04-30T11:53:52.900Z,44.02
2023-04-30T11:56:24.973Z,44.64
2023-04-30T11:58:52.927Z,45.17
2023-04-30T12:01:21.320Z,44.56
2023-04-30T12:03:50.898Z,45.47
2023-04-30T12:06:25.170Z,45.17
2023-04-30T12:08:56.357Z,45.43
2023-04-30T12:11:26.005Z,45.34
2023-04-30T12:13:57.594Z,42.91
2023-04-30T12:16:25.856Z,44.47
2023-04-30T12:18:53.070Z,43.38
2023-04-30T12:21:21.697Z,42.07
2023-04-30T12:23:48.558Z,43.91
2023-04-30T12:26:15.296Z,43.76
2023-04-30T12:28:41.992Z,42.03
2023-04-30T12:31:08.845Z,42.88
2023-04-30T12:33:37.373Z,41.77
2023-04-30T12:36:04.313Z,40.58
2023-04-30T12:38:31.117Z,39.85
2023-04-30T12:40:58.001Z,43.42
2023-04-30T12:43:24.716Z,44.53
2023-04-30T12:45:53.376Z,44.53
2023-04-30T12:48:21.981Z,43.38
2023-04-30T12:51:10.272Z,44.69
2023-04-30T12:53:46.079Z,43.75
2023-04-30T12:56:17.131Z,43.33
2023-04-30T12:58:51.218Z,43.92
2023-04-30T13:01:20.616Z,43.27
2023-04-30T13:03:47.751Z,41.80
2023-04-30T13:06:14.612Z,44.52
2023-04-30T13:08:57.209Z,43.24
2023-04-30T13:11:26.648Z,45.24
2023-04-30T13:13:55.670Z,43.69
2023-04-30T13:16:23.198Z,43.29
2023-04-30T13:18:49.938Z,43.81
2023-04-30T13:21:16.651Z,43.42
2023-04-30T13:23:51.784Z,41.13
2023-04-30T13:26:21.542Z,44.33
2023-04-30T13:28:48.242Z,42.91
2023-04-30T13:31:15.047Z,41.95
2023-04-30T13:33:41.839Z,41.84
2023-04-30T13:36:08.542Z,42.31
2023-04-30T13:38:35.281Z,42.88
2023-04-30T13:41:01.986Z,42.97
2023-04-30T13:43:28.645Z,40.79
2023-04-30T13:45:55.437Z,42.40
2023-04-30T13:48:22.245Z,41.80
2023-04-30T13:50:49.040Z,39.40
2023-04-30T13:53:16.288Z,43.06
2023-04-30T13:55:43.022Z,41.70
2023-04-30T13:58:09.813Z,41.53
2023-04-30T14:00:36.568Z,40.00
2023-04-30T14:03:04.515Z,41.15
2023-04-30T14:05:33.130Z,39.73
2023-04-30T14:08:00.217Z,37.46
2023-04-30T14:10:27.270Z,38.74
2023-04-30T14:12:54.094Z,42.67
2023-04-30T14:15:21.513Z,41.79
2023-04-30T14:17:48.651Z,39.92
2023-04-30T14:20:15.465Z,41.26
2023-04-30T14:22:42.431Z,43.47
2023-04-30T14:25:09.764Z,42.88
2023-04-30T14:27:37.213Z,43.09
2023-04-30T14:30:04.456Z,42.34
2023-04-30T14:32:31.306Z,42.64
2023-04-30T14:34:58.136Z,43.80
2023-04-30T14:37:28.004Z,41.18
2023-04-30T14:39:54.977Z,41.92
2023-04-30T14:42:21.864Z,43.21
2023-04-30T14:44:48.544Z,42.32
2023-04-30T14:47:15.266Z,41.79
2023-04-30T14:49:41.998Z,41.35
2023-04-30T14:52:09.155Z,41.39
2023-04-30T14:54:35.946Z,42.52
2023-04-30T14:57:04.275Z,42.27
2023-04-30T14:59:31.692Z,42.83
2023-04-30T15:01:58.677Z,43.27
2023-04-30T15:04:25.475Z,42.93
2023-04-30T15:06:52.375Z,41.32
2023-04-30T15:09:19.417Z,39.99
2023-04-30T15:11:46.177Z,41.50
2023-04-30T15:14:12.955Z,40.97
2023-04-30T15:16:40.324Z,42.08
2023-04-30T15:19:07.809Z,43.00
2023-04-30T15:21:34.636Z,42.33
2023-04-30T15:24:01.482Z,43.89
2023-04-30T15:26:29.009Z,42.43
2023-04-30T15:28:57.039Z,43.05
2023-04-30T15:31:24.405Z,43.51
2023-04-30T15:33:51.955Z,42.96
2023-04-30T15:36:19.289Z,44.09
2023-04-30T15:38:46.079Z,44.82
2023-04-30T15:41:12.766Z,43.06
2023-04-30T15:43:39.701Z,43.89
2023-04-30T15:46:06.478Z,44.57
2023-04-30T15:48:33.286Z,43.84
2023-04-30T15:51:00.310Z,43.62
2023-04-30T15:53:27.043Z,45.84
2023-04-30T15:55:54.096Z,45.02
2023-04-30T15:58:20.855Z,46.06
2023-04-30T16:00:47.740Z,44.02
2023-04-30T16:03:14.554Z,44.69
2023-04-30T16:05:41.944Z,44.23
2023-04-30T16:08:12.373Z,43.61
2023-04-30T16:10:39.223Z,45.49
2023-04-30T16:13:05.958Z,44.99
2023-04-30T16:15:33.206Z,46.63
2023-04-30T16:17:59.996Z,43.86
2023-04-30T16:20:27.523Z,45.26
2023-04-30T16:22:54.975Z,45.63
2023-04-30T16:25:22.366Z,44.76
2023-04-30T16:27:49.988Z,46.05
2023-04-30T16:30:16.756Z,45.46
2023-04-30T16:32:44.514Z,46.16
2023-04-30T16:35:11.454Z,45.73
2023-04-30T16:37:38.181Z,46.51
2023-04-30T16:40:06.599Z,46.94
2023-04-30T16:42:34.050Z,44.84
2023-04-30T16:45:00.770Z,45.90
2023-04-30T16:47:27.701Z,45.92
2023-04-30T16:49:55.935Z,46.00
2023-04-30T16:52:22.898Z,45.76
2023-04-30T16:54:49.626Z,46.17
2023-04-30T16:57:16.826Z,47.13
2023-04-30T16:59:43.534Z,47.52
2023-04-30T17:02:10.349Z,46.89
2023-04-30T17:04:37.270Z,46.41
2023-04-30T17:07:04.038Z,46.54
2023-04-30T17:09:31.448Z,45.04
2023-04-30T17:11:58.177Z,47.86
2023-04-30T17:14:24.995Z,45.87
2023-04-30T17:16:51.659Z,46.74
2023-04-30T17:19:18.333Z,47.82
2023-04-30T17:21:45.067Z,45.24
2023-04-30T17:24:11.928Z,47.12
2023-04-30T17:26:38.614Z,47.83
2023-04-30T17:29:06.356Z,47.58
2023-04-30T17:31:33.383Z,48.08
2023-04-30T17:34:02.818Z,49.00
2023-04-30T17:36:30.517Z,47.40
2023-04-30T17:38:57.269Z,46.62
2023-04-30T17:41:24.206Z,49.04
2023-04-30T17:43:51.867Z,48.70
2023-04-30T17:46:18.612Z,47.53
2023-04-30T17:48:45.339Z,46.10
2023-04-30T17:51:12.137Z,48.05
2023-04-30T17:53:38.851Z,48.91
2023-04-30T17:56:05.886Z,50.84
2023-04-30T17:58:32.856Z,47.70
2023-04-30T18:01:01.806Z,49.37
2023-04-30T18:03:28.935Z,48.99
2023-04-30T18:05:55.783Z,50.53
2023-04-30T18:08:22.601Z,48.98
2023-04-30T18:10:49.835Z,48.45
2023-04-30T18:13:16.564Z,48.08
2023-04-30T18:15:43.318Z,51.18
2023-04-30T18:18:10.150Z,52.04
2023-04-30T18:20:37.158Z,52.42
2023-04-30T18:23:05.911Z,49.90
2023-04-30T18:25:34.522Z,51.60
2023-04-30T18:28:01.585Z,51.85
2023-04-30T18:30:28.311Z,50.52
2023-04-30T18:32:55.115Z,52.54
2023-04-30T18:35:22.343Z,53.00
2023-04-30T18:37:49.806Z,53.02
2023-04-30T18:40:17.433Z,50.87
2023-04-30T18:42:44.276Z,52.35
2023-04-30T18:45:11.995Z,52.94
2023-04-30T18:47:38.800Z,53.29
2023-04-30T18:50:07.783Z,54.35
2023-04-30T18:52:34.544Z,52.38
2023-04-30T18:55:01.590Z,53.55
2023-04-30T18:57:28.970Z,54.22
2023-04-30T18:59:56.100Z,54.91
2023-04-30T19:02:23.229Z,54.16
2023-04-30T19:04:50.859Z,55.43
2023-04-30T19:07:17.651Z,55.91
2023-04-30T19:09:45.616Z,55.65
2023-04-30T19:12:12.400Z,55.22
2023-04-30T19:14:39.147Z,56.22
2023-04-30T19:17:06.027Z,55.40
2023-04-30T19:19:33.146Z,56.30
2023-04-30T19:21:59.865Z,55.49
2023-04-30T19:24:26.634Z,55.62
2023-04-30T19:26:53.392Z,53.79
2023-04-30T19:29:20.269Z,55.56
2023-04-30T19:31:47.146Z,55.62
2023-04-30T19:34:16.737Z,56.12
2023-04-30T19:36:44.285Z,56.26
2023-04-30T19:39:11.980Z,55.86
2023-04-30T19:41:39.588Z,57.36
2023-04-30T19:44:07.894Z,57.17
2023-04-30T19:46:35.028Z,57.97
2023-04-30T19:49:01.787Z,56.66
2023-04-30T19:51:28.610Z,56.08
2023-04-30T19:53:55.733Z,56.70
2023-04-30T19:56:22.573Z,57.07
2023-04-30T19:58:50.044Z,56.86
2023-04-30T20:01:17.543Z,56.31
2023-04-30T20:03:44.859Z,56.27
2023-04-30T20:06:12.379Z,56.62
2023-04-30T20:08:39.382Z,57.02
2023-04-30T20:11:06.219Z,57.34
2023-04-30T20:13:33.117Z,56.88
2023-04-30T20:15:59.901Z,57.42
2023-04-30T20:18:26.716Z,57.40
2023-04-30T20:20:53.733Z,58.27
2023-04-30T20:23:20.804Z,58.24
2023-04-30T20:25:48.081Z,58.85
2023-04-30T20:28:16.004Z,58.91
2023-04-30T20:30:43.269Z,58.52
2023-04-30T20:33:13.625Z,58.50
2023-04-30T20:35:41.879Z,58.39
2023-04-30T20:38:08.762Z,59.26
2023-04-30T20:40:35.835Z,58.17
2023-04-30T20:43:02.652Z,59.59
2023-04-30T20:45:30.358Z,59.24
2023-04-30T20:47:57.240Z,59.90
2023-04-30T20:50:24.018Z,59.93
2023-04-30T20:52:50.715Z,59.93
2023-04-30T20:55:17.587Z,60.55
2023-04-30T20:57:44.291Z,60.65
2023-04-30T21:00:12.212Z,60.46
2023-04-30T21:02:39.382Z,60.69
2023-04-30T21:05:06.963Z,60.50
2023-04-30T21:07:37.462Z,60.69
2023-04-30T21:10:08.541Z,60.14
2023-04-30T21:12:35.754Z,60.39
2023-04-30T21:15:03.212Z,60.98
2023-04-30T21:17:30.059Z,60.45
2023-04-30T21:19:57.400Z,59.83
2023-04-30T21:22:24.766Z,60.78
2023-04-30T21:24:54.781Z,60.17
2023-04-30T21:27:21.791Z,60.63
2023-04-30T21:29:48.657Z,61.04
2023-04-30T21:32:15.389Z,61.24
2023-04-30T21:34:42.272Z,61.23
2023-04-30T21:37:09.001Z,61.35
2023-04-30T21:39:35.867Z,61.66
2023-04-30T21:42:04.689Z,62.14
2023-04-30T21:44:32.952Z,61.92
2023-04-30T21:47:00.173Z,62.27
2023-04-30T21:49:27.249Z,62.47
2023-04-30T21:51:54.072Z,63.11
2023-04-30T21:54:20.925Z,62.45
2023-04-30T21:56:48.192Z,62.74
2023-04-30T21:59:14.890Z,62.84
2023-04-30T22:01:41.635Z,63.27
2023-04-30T22:04:08.992Z,63.05
2023-04-30T22:06:35.995Z,63.13
2023-04-30T22:09:02.755Z,63.08
2023-04-30T22:11:29.616Z,63.05
2023-04-30T22:13:56.310Z,62.86
2023-04-30T22:16:23.120Z,63.17
2023-04-30T22:18:49.927Z,62.70
2023-04-30T22:21:16.645Z,63.03
2023-04-30T22:23:43.583Z,63.04
2023-04-30T22:26:11.545Z,63.20
2023-04-30T22:28:38.451Z,63.38
2023-04-30T22:31:05.321Z,63.15
2023-04-30T22:33:36.609Z,63.44
2023-04-30T22:36:06.475Z,63.50
2023-04-30T22:38:33.894Z,63.43
2023-04-30T22:41:01.371Z,63.52
2023-04-30T22:43:30.837Z,64.13
2023-04-30T22:45:58.855Z,64.00
2023-04-30T22:48:27.821Z,64.59
2023-04-30T22:50:55.679Z,64.40
2023-04-30T22:53:22.904Z,64.77
2023-04-30T22:55:50.116Z,64.77
2023-04-30T22:58:17.634Z,65.16
2023-04-30T23:00:44.486Z,65.53
2023-04-30T23:03:11.532Z,64.77
2023-04-30T23:05:38.894Z,64.97
2023-04-30T23:08:05.632Z,65.76
2023-04-30T23:10:32.316Z,65.51
2023-04-30T23:12:59.244Z,65.45
2023-04-30T23:15:26.408Z,65.28
2023-04-30T23:17:54.709Z,65.77
2023-04-30T23:20:23.045Z,65.91
2023-04-30T23:22:50.329Z,65.20
2023-04-30T23:25:17.247Z,65.67
2023-04-30T23:27:45.228Z,65.32
2023-04-30T23:30:12.228Z,65.61
2023-04-30T23:32:39.123Z,65.94
2023-04-30T23:35:07.998Z,65.62
2023-04-30T23:37:35.296Z,66.51
2023-04-30T23:40:02.331Z,66.17
2023-04-30T23:42:29.237Z,66.07
2023-04-30T23:44:55.904Z,65.65
2023-04-30T23:47:22.807Z,66.30
2023-04-30T23:49:49.693Z,65.98
2023-04-30T23:52:16.518Z,65.79
2023-04-30T23:54:43.364Z,65.84
2023-04-30T23:57:10.443Z,66.32
2023-04-30T23:59:37.238Z,66.45
